BCS7823 LIPY-LIMC
Flight info
| Callsign | BCS7823 |
|---|---|
| Flight time | 0h 54m |
| Altitude | 18000 |
| Route | BIDMA M730 ASDOR/N0449F340 DCT SUKOM DCT VABOK DCT ADOSA/N0451F330 DCT IDREK DCT ELTAR DCT NOBMI DCT NEVNI DCT OSKOR DCT LEGLO DCT PEXUG |
| Aircraft | B752/M-SDE2E3FGHIJ3J4J7RWXY/LB1 |
Departure
| Time | 2026-05-04 21:34 |
|---|---|
| Airport | Marche Airport (LIPY) |
Arrival
| Time | 2026-05-04 22:28 |
|---|---|
| Airport | Milan Malpensa International Airport (LIMC) |
| Time | Latitude | Longitude | Altitude | Speed | Heading |
|---|---|---|---|---|---|
| 2026-05-04 20:19 | 43.60786 | 13.35503 | 62 ft | 0 kts | 164° |
| 2026-05-04 21:23 | 43.60785 | 13.35503 | 61 ft | 0 kts | 164° |
| 2026-05-04 21:24 | 43.60784 | 13.35504 | 61 ft | 0 kts | 167° |
| 2026-05-04 21:24 | 43.60782 | 13.35504 | 61 ft | 1 kts | 177° |
| 2026-05-04 21:24 | 43.60772 | 13.35490 | 61 ft | 2 kts | 262° |
| 2026-05-04 21:24 | 43.60778 | 13.35473 | 61 ft | 2 kts | 317° |
| 2026-05-04 21:25 | 43.60792 | 13.35455 | 61 ft | 3 kts | 317° |
| 2026-05-04 21:25 | 43.60798 | 13.35434 | 61 ft | 4 kts | 271° |
| 2026-05-04 21:25 | 43.60778 | 13.35381 | 61 ft | 8 kts | 227° |
| 2026-05-04 21:25 | 43.60742 | 13.35330 | 62 ft | 6 kts | 225° |
| 2026-05-04 21:26 | 43.60714 | 13.35285 | 62 ft | 5 kts | 244° |
| 2026-05-04 21:26 | 43.60722 | 13.35223 | 62 ft | 8 kts | 302° |
| 2026-05-04 21:26 | 43.60764 | 13.35159 | 62 ft | 8 kts | 314° |
| 2026-05-04 21:26 | 43.60794 | 13.35127 | 62 ft | 4 kts | 354° |
| 2026-05-04 21:27 | 43.60846 | 13.35155 | 61 ft | 10 kts | 36° |
| 2026-05-04 21:27 | 43.60912 | 13.35239 | 61 ft | 13 kts | 45° |
| 2026-05-04 21:27 | 43.60979 | 13.35331 | 61 ft | 14 kts | 45° |
| 2026-05-04 21:27 | 43.61052 | 13.35434 | 60 ft | 16 kts | 44° |
| 2026-05-04 21:28 | 43.61136 | 13.35547 | 59 ft | 17 kts | 45° |
| 2026-05-04 21:28 | 43.61225 | 13.35669 | 58 ft | 18 kts | 44° |
| 2026-05-04 21:28 | 43.61314 | 13.35791 | 57 ft | 16 kts | 44° |
| 2026-05-04 21:28 | 43.61397 | 13.35905 | 55 ft | 18 kts | 45° |
| 2026-05-04 21:29 | 43.61500 | 13.36050 | 53 ft | 23 kts | 45° |
| 2026-05-04 21:29 | 43.61630 | 13.36224 | 51 ft | 28 kts | 44° |
| 2026-05-04 21:29 | 43.61778 | 13.36427 | 48 ft | 31 kts | 45° |
| 2026-05-04 21:29 | 43.61930 | 13.36633 | 46 ft | 29 kts | 46° |
| 2026-05-04 21:30 | 43.62070 | 13.36828 | 44 ft | 27 kts | 45° |
| 2026-05-04 21:30 | 43.62198 | 13.37004 | 42 ft | 24 kts | 45° |
| 2026-05-04 21:30 | 43.62310 | 13.37159 | 41 ft | 21 kts | 44° |
| 2026-05-04 21:30 | 43.62411 | 13.37296 | 40 ft | 18 kts | 44° |
| 2026-05-04 21:31 | 43.62517 | 13.37532 | 39 ft | 7 kts | 68° |
| 2026-05-04 21:31 | 43.62539 | 13.37551 | 39 ft | 3 kts | 346° |
| 2026-05-04 21:31 | 43.62558 | 13.37530 | 39 ft | 4 kts | 313° |
| 2026-05-04 21:32 | 43.62566 | 13.37511 | 39 ft | 1 kts | 263° |
| 2026-05-04 21:32 | 43.62560 | 13.37501 | 39 ft | 2 kts | 226° |
| 2026-05-04 21:32 | 43.62551 | 13.37488 | 39 ft | 0 kts | 226° |
| 2026-05-04 21:33 | 43.62450 | 13.37345 | 40 ft | 53 kts | 222° |
| 2026-05-04 21:34 | 43.62012 | 13.36748 | 45 ft | 120 kts | 224° |
| 2026-05-04 21:34 | 43.61296 | 13.35761 | 209 ft | 162 kts | 224° |
| 2026-05-04 21:34 | 43.60493 | 13.34633 | 826 ft | 170 kts | 224° |
| 2026-05-04 21:34 | 43.59667 | 13.33492 | 1647 ft | 170 kts | 224° |
| 2026-05-04 21:35 | 43.58864 | 13.32385 | 2566 ft | 161 kts | 224° |
| 2026-05-04 21:35 | 43.58042 | 13.31240 | 3052 ft | 178 kts | 224° |
| 2026-05-04 21:35 | 43.57186 | 13.30051 | 3790 ft | 181 kts | 224° |
| 2026-05-04 21:35 | 43.56290 | 13.28813 | 4535 ft | 185 kts | 223° |
| 2026-05-04 21:36 | 43.55345 | 13.27561 | 5112 ft | 198 kts | 222° |
| 2026-05-04 21:36 | 43.54287 | 13.26144 | 5417 ft | 225 kts | 226° |
| 2026-05-04 21:36 | 43.53243 | 13.24548 | 6220 ft | 228 kts | 227° |
| 2026-05-04 21:36 | 43.52232 | 13.22936 | 7154 ft | 223 kts | 227° |
| 2026-05-04 21:37 | 43.51412 | 13.21121 | 7799 ft | 233 kts | 250° |
| 2026-05-04 21:37 | 43.51250 | 13.18874 | 8437 ft | 243 kts | 277° |
| 2026-05-04 21:37 | 43.51851 | 13.16736 | 9229 ft | 247 kts | 303° |
| 2026-05-04 21:37 | 43.53151 | 13.15100 | 9720 ft | 263 kts | 330° |
| 2026-05-04 21:38 | 43.54848 | 13.14315 | 10564 ft | 259 kts | 348° |
| 2026-05-04 21:38 | 43.56615 | 13.13944 | 11349 ft | 256 kts | 349° |
| 2026-05-04 21:38 | 43.58366 | 13.13491 | 11871 ft | 261 kts | 344° |
| 2026-05-04 21:38 | 43.60120 | 13.12886 | 12542 ft | 261 kts | 342° |
| 2026-05-04 21:39 | 43.61814 | 13.11949 | 12895 ft | 270 kts | 322° |
| 2026-05-04 21:39 | 43.63314 | 13.10303 | 13109 ft | 286 kts | 318° |
| 2026-05-04 21:39 | 43.64927 | 13.08514 | 13336 ft | 304 kts | 316° |
| 2026-05-04 21:39 | 43.66318 | 13.06230 | 13497 ft | 319 kts | 297° |
| 2026-05-04 21:40 | 43.67144 | 13.03330 | 13631 ft | 334 kts | 282° |
| 2026-05-04 21:40 | 43.67627 | 13.00144 | 13712 ft | 353 kts | 282° |
| 2026-05-04 21:40 | 43.68193 | 12.96822 | 14254 ft | 356 kts | 282° |
| 2026-05-04 21:40 | 43.68779 | 12.93465 | 14775 ft | 360 kts | 283° |
| 2026-05-04 21:41 | 43.69375 | 12.90140 | 15324 ft | 363 kts | 283° |
| 2026-05-04 21:41 | 43.69991 | 12.86739 | 15835 ft | 366 kts | 283° |
| 2026-05-04 21:41 | 43.70613 | 12.83328 | 16340 ft | 369 kts | 283° |
| 2026-05-04 21:41 | 43.71237 | 12.79907 | 16839 ft | 371 kts | 283° |
| 2026-05-04 21:42 | 43.71867 | 12.76461 | 17306 ft | 373 kts | 283° |
| 2026-05-04 21:42 | 43.72504 | 12.72967 | 17741 ft | 376 kts | 283° |
| 2026-05-04 21:42 | 43.73142 | 12.69470 | 18210 ft | 378 kts | 283° |
| 2026-05-04 21:42 | 43.73781 | 12.65963 | 18650 ft | 380 kts | 283° |
| 2026-05-04 21:43 | 43.74426 | 12.62409 | 19094 ft | 382 kts | 283° |
| 2026-05-04 21:43 | 43.75074 | 12.58838 | 19499 ft | 384 kts | 283° |
| 2026-05-04 21:43 | 43.75718 | 12.55283 | 19931 ft | 386 kts | 283° |
| 2026-05-04 21:43 | 43.76372 | 12.51663 | 20275 ft | 389 kts | 283° |
| 2026-05-04 21:44 | 43.77026 | 12.48038 | 20660 ft | 391 kts | 283° |
| 2026-05-04 21:44 | 43.77863 | 12.44454 | 21029 ft | 394 kts | 292° |
| 2026-05-04 21:44 | 43.79168 | 12.41147 | 21334 ft | 400 kts | 303° |
| 2026-05-04 21:44 | 43.80935 | 12.38191 | 21706 ft | 403 kts | 313° |
| 2026-05-04 21:45 | 43.83107 | 12.35687 | 21979 ft | 410 kts | 323° |
| 2026-05-04 21:45 | 43.85487 | 12.33451 | 22339 ft | 411 kts | 323° |
| 2026-05-04 21:45 | 43.87848 | 12.31216 | 22615 ft | 414 kts | 323° |
| 2026-05-04 21:45 | 43.90232 | 12.28968 | 22926 ft | 415 kts | 323° |
| 2026-05-04 21:46 | 43.92608 | 12.26728 | 23219 ft | 418 kts | 323° |
| 2026-05-04 21:46 | 43.95006 | 12.24468 | 23532 ft | 419 kts | 323° |
| 2026-05-04 21:46 | 43.97415 | 12.22195 | 23862 ft | 419 kts | 323° |
| 2026-05-04 21:46 | 43.99844 | 12.19903 | 24182 ft | 420 kts | 322° |
| 2026-05-04 21:47 | 44.02233 | 12.17647 | 24466 ft | 421 kts | 322° |
| 2026-05-04 21:47 | 44.04652 | 12.15358 | 24743 ft | 422 kts | 322° |
| 2026-05-04 21:47 | 44.07069 | 12.13071 | 24974 ft | 424 kts | 322° |
| 2026-05-04 21:47 | 44.09501 | 12.10769 | 25281 ft | 424 kts | 322° |
| 2026-05-04 21:48 | 44.11953 | 12.08442 | 25541 ft | 424 kts | 322° |
| 2026-05-04 21:48 | 44.14384 | 12.06134 | 25752 ft | 426 kts | 322° |
| 2026-05-04 21:48 | 44.16818 | 12.03822 | 25976 ft | 427 kts | 322° |
| 2026-05-04 21:48 | 44.19283 | 12.01478 | 26199 ft | 428 kts | 322° |
| 2026-05-04 21:49 | 44.21718 | 11.99159 | 26414 ft | 429 kts | 322° |
| 2026-05-04 21:49 | 44.24196 | 11.96797 | 26682 ft | 429 kts | 322° |
| 2026-05-04 21:49 | 44.26664 | 11.94442 | 26841 ft | 431 kts | 322° |
| 2026-05-04 21:49 | 44.29116 | 11.92101 | 27048 ft | 432 kts | 322° |
| 2026-05-04 21:50 | 44.31607 | 11.89718 | 27224 ft | 433 kts | 322° |
| 2026-05-04 21:50 | 44.34102 | 11.87332 | 27464 ft | 433 kts | 322° |
| 2026-05-04 21:50 | 44.36589 | 11.84948 | 27583 ft | 435 kts | 322° |
| 2026-05-04 21:50 | 44.39059 | 11.82580 | 27833 ft | 434 kts | 322° |
| 2026-05-04 21:51 | 44.41573 | 11.80165 | 27942 ft | 437 kts | 322° |
| 2026-05-04 21:51 | 44.44005 | 11.77828 | 28111 ft | 438 kts | 322° |
| 2026-05-04 21:51 | 44.46508 | 11.75420 | 28292 ft | 438 kts | 322° |
| 2026-05-04 21:51 | 44.49023 | 11.72998 | 28418 ft | 440 kts | 322° |
| 2026-05-04 21:52 | 44.51523 | 11.70587 | 28588 ft | 440 kts | 322° |
| 2026-05-04 21:52 | 44.54048 | 11.68204 | 28727 ft | 442 kts | 326° |
| 2026-05-04 21:52 | 44.56804 | 11.66258 | 28867 ft | 448 kts | 335° |
| 2026-05-04 21:53 | 44.62655 | 11.63150 | 29126 ft | 451 kts | 336° |
| 2026-05-04 21:53 | 44.65589 | 11.61603 | 29305 ft | 451 kts | 336° |
| 2026-05-04 21:53 | 44.68543 | 11.60048 | 29366 ft | 453 kts | 336° |
| 2026-05-04 21:53 | 44.71479 | 11.58505 | 29538 ft | 453 kts | 336° |
| 2026-05-04 21:54 | 44.74445 | 11.56945 | 29643 ft | 454 kts | 336° |
| 2026-05-04 21:54 | 44.77388 | 11.55399 | 29779 ft | 455 kts | 336° |
| 2026-05-04 21:54 | 44.80362 | 11.53834 | 29886 ft | 456 kts | 336° |
| 2026-05-04 21:54 | 44.83334 | 11.52270 | 30027 ft | 456 kts | 336° |
| 2026-05-04 21:55 | 44.86319 | 11.50696 | 30121 ft | 457 kts | 336° |
| 2026-05-04 21:55 | 44.92271 | 11.47553 | 30338 ft | 459 kts | 336° |
| 2026-05-04 21:56 | 44.98258 | 11.44386 | 30509 ft | 461 kts | 336° |
| 2026-05-04 21:56 | 45.01247 | 11.42802 | 30660 ft | 460 kts | 336° |
| 2026-05-04 21:56 | 45.04224 | 11.41224 | 30934 ft | 456 kts | 336° |
| 2026-05-04 21:56 | 45.07163 | 11.39664 | 31279 ft | 451 kts | 336° |
| 2026-05-04 21:57 | 45.10062 | 11.38123 | 31611 ft | 446 kts | 336° |
| 2026-05-04 21:57 | 45.12955 | 11.36584 | 31944 ft | 441 kts | 336° |
| 2026-05-04 21:57 | 45.15758 | 11.35091 | 32272 ft | 435 kts | 336° |
| 2026-05-04 21:57 | 45.18532 | 11.33611 | 32612 ft | 429 kts | 335° |
| 2026-05-04 21:58 | 45.21300 | 11.32132 | 32950 ft | 424 kts | 335° |
| 2026-05-04 21:58 | 45.24019 | 11.30679 | 33287 ft | 418 kts | 335° |
| 2026-05-04 21:58 | 45.26738 | 11.29225 | 33627 ft | 411 kts | 335° |
| 2026-05-04 21:58 | 45.29376 | 11.27777 | 33956 ft | 403 kts | 332° |
| 2026-05-04 21:59 | 45.31884 | 11.26052 | 34050 ft | 401 kts | 328° |
| 2026-05-04 21:59 | 45.36870 | 11.22466 | 34050 ft | 405 kts | 329° |
| 2026-05-04 22:00 | 45.41936 | 11.18838 | 34056 ft | 408 kts | 329° |
| 2026-05-04 22:00 | 45.46997 | 11.15209 | 34061 ft | 411 kts | 329° |
| 2026-05-04 22:01 | 45.52142 | 11.11514 | 34066 ft | 415 kts | 329° |
| 2026-05-04 22:01 | 45.57252 | 11.07644 | 34066 ft | 414 kts | 321° |
| 2026-05-04 22:02 | 45.61302 | 11.02010 | 34080 ft | 407 kts | 301° |
| 2026-05-04 22:02 | 45.62689 | 10.98512 | 34102 ft | 407 kts | 290° |
| 2026-05-04 22:02 | 45.63597 | 10.94691 | 34096 ft | 410 kts | 280° |
| 2026-05-04 22:03 | 45.64251 | 10.86511 | 34088 ft | 421 kts | 272° |
| 2026-05-04 22:03 | 45.64512 | 10.78071 | 34089 ft | 432 kts | 270° |
| 2026-05-04 22:04 | 45.64655 | 10.69431 | 34072 ft | 437 kts | 270° |
| 2026-05-04 22:04 | 45.64740 | 10.60835 | 34084 ft | 432 kts | 269° |
| 2026-05-04 22:04 | 45.64769 | 10.56602 | 34080 ft | 415 kts | 269° |
| 2026-05-04 22:05 | 45.64792 | 10.52567 | 34013 ft | 404 kts | 269° |
| 2026-05-04 22:05 | 45.64810 | 10.48532 | 33765 ft | 406 kts | 269° |
| 2026-05-04 22:05 | 45.64823 | 10.44498 | 33020 ft | 419 kts | 269° |
| 2026-05-04 22:05 | 45.64839 | 10.40364 | 32757 ft | 411 kts | 269° |
| 2026-05-04 22:06 | 45.64855 | 10.36241 | 32141 ft | 414 kts | 269° |
| 2026-05-04 22:06 | 45.64869 | 10.32156 | 31591 ft | 416 kts | 269° |
| 2026-05-04 22:06 | 45.64881 | 10.28103 | 30892 ft | 421 kts | 269° |
| 2026-05-04 22:06 | 45.64893 | 10.23938 | 30123 ft | 423 kts | 269° |
| 2026-05-04 22:07 | 45.64903 | 10.19736 | 29315 ft | 422 kts | 269° |
| 2026-05-04 22:07 | 45.64911 | 10.15576 | 28517 ft | 418 kts | 269° |
| 2026-05-04 22:07 | 45.64918 | 10.11658 | 27742 ft | 413 kts | 269° |
| 2026-05-04 22:07 | 45.64936 | 10.07597 | 26932 ft | 407 kts | 269° |
| 2026-05-04 22:08 | 45.64953 | 10.03627 | 26481 ft | 392 kts | 268° |
| 2026-05-04 22:08 | 45.64968 | 9.99773 | 26343 ft | 387 kts | 268° |
| 2026-05-04 22:08 | 45.64980 | 9.95865 | 26224 ft | 402 kts | 268° |
| 2026-05-04 22:08 | 45.64992 | 9.91840 | 26095 ft | 407 kts | 268° |
| 2026-05-04 22:09 | 45.65004 | 9.87816 | 25485 ft | 412 kts | 268° |
| 2026-05-04 22:09 | 45.65015 | 9.83772 | 24701 ft | 409 kts | 268° |
| 2026-05-04 22:09 | 45.65023 | 9.79739 | 23917 ft | 408 kts | 268° |
| 2026-05-04 22:09 | 45.65050 | 9.75732 | 23397 ft | 400 kts | 269° |
| 2026-05-04 22:10 | 45.65141 | 9.71781 | 22778 ft | 396 kts | 270° |
| 2026-05-04 22:10 | 45.65227 | 9.67908 | 22313 ft | 388 kts | 270° |
| 2026-05-04 22:10 | 45.65311 | 9.64092 | 21864 ft | 377 kts | 269° |
| 2026-05-04 22:10 | 45.65342 | 9.60421 | 21468 ft | 365 kts | 268° |
| 2026-05-04 22:11 | 45.65340 | 9.56801 | 21412 ft | 370 kts | 268° |
| 2026-05-04 22:11 | 45.65339 | 9.53046 | 20807 ft | 390 kts | 268° |
| 2026-05-04 22:11 | 45.65341 | 9.49198 | 20102 ft | 385 kts | 268° |
| 2026-05-04 22:11 | 45.65342 | 9.45463 | 20044 ft | 367 kts | 268° |
| 2026-05-04 22:12 | 45.65343 | 9.41917 | 20021 ft | 348 kts | 268° |
| 2026-05-04 22:12 | 45.65341 | 9.38564 | 19949 ft | 331 kts | 268° |
| 2026-05-04 22:12 | 45.65338 | 9.35345 | 19795 ft | 316 kts | 268° |
| 2026-05-04 22:12 | 45.65349 | 9.32184 | 19431 ft | 322 kts | 267° |
| 2026-05-04 22:13 | 45.65366 | 9.29025 | 19037 ft | 325 kts | 267° |
| 2026-05-04 22:13 | 45.65382 | 9.25792 | 18649 ft | 322 kts | 267° |
| 2026-05-04 22:13 | 45.65398 | 9.22670 | 18252 ft | 318 kts | 268° |
| 2026-05-04 22:13 | 45.65412 | 9.19502 | 17847 ft | 315 kts | 268° |
| 2026-05-04 22:14 | 45.65425 | 9.16412 | 17458 ft | 314 kts | 268° |
| 2026-05-04 22:14 | 45.65438 | 9.13312 | 17084 ft | 314 kts | 268° |
| 2026-05-04 22:14 | 45.65450 | 9.10199 | 16719 ft | 313 kts | 268° |
| 2026-05-04 22:14 | 45.65461 | 9.07089 | 16334 ft | 312 kts | 268° |
| 2026-05-04 22:15 | 45.65471 | 9.04011 | 15943 ft | 310 kts | 268° |
| 2026-05-04 22:15 | 45.65478 | 9.00949 | 15564 ft | 308 kts | 266° |
| 2026-05-04 22:15 | 45.65174 | 8.97962 | 15201 ft | 302 kts | 249° |
| 2026-05-04 22:15 | 45.64331 | 8.95268 | 14999 ft | 298 kts | 242° |
| 2026-05-04 22:16 | 45.63372 | 8.92676 | 14878 ft | 292 kts | 233° |
| 2026-05-04 22:16 | 45.61995 | 8.90688 | 14765 ft | 274 kts | 210° |
| 2026-05-04 22:16 | 45.60245 | 8.89788 | 14463 ft | 271 kts | 188° |
| 2026-05-04 22:16 | 45.58346 | 8.89618 | 14086 ft | 275 kts | 180° |
| 2026-05-04 22:17 | 45.56424 | 8.89737 | 13694 ft | 275 kts | 176° |
| 2026-05-04 22:17 | 45.54543 | 8.90003 | 13361 ft | 271 kts | 174° |
| 2026-05-04 22:17 | 45.52694 | 8.90361 | 12995 ft | 269 kts | 172° |
| 2026-05-04 22:17 | 45.50853 | 8.90774 | 12668 ft | 266 kts | 171° |
| 2026-05-04 22:18 | 45.49014 | 8.91224 | 12372 ft | 266 kts | 171° |
| 2026-05-04 22:18 | 45.47202 | 8.91688 | 12113 ft | 265 kts | 170° |
| 2026-05-04 22:18 | 45.45388 | 8.92165 | 11835 ft | 265 kts | 170° |
| 2026-05-04 22:18 | 45.43592 | 8.92643 | 11536 ft | 263 kts | 169° |
| 2026-05-04 22:19 | 45.41798 | 8.93125 | 11250 ft | 260 kts | 169° |
| 2026-05-04 22:19 | 45.40056 | 8.93594 | 11068 ft | 252 kts | 169° |
| 2026-05-04 22:19 | 45.38363 | 8.94052 | 11013 ft | 245 kts | 169° |
| 2026-05-04 22:19 | 45.36628 | 8.94521 | 10417 ft | 258 kts | 168° |
| 2026-05-04 22:20 | 45.34859 | 8.94999 | 9808 ft | 266 kts | 168° |
| 2026-05-04 22:20 | 45.33015 | 8.95105 | 9182 ft | 269 kts | 191° |
| 2026-05-04 22:20 | 45.31340 | 8.93987 | 8632 ft | 265 kts | 220° |
| 2026-05-04 22:20 | 45.30275 | 8.91896 | 8073 ft | 265 kts | 249° |
| 2026-05-04 22:21 | 45.29828 | 8.89383 | 7495 ft | 263 kts | 256° |
| 2026-05-04 22:21 | 45.29493 | 8.86867 | 6888 ft | 262 kts | 266° |
| 2026-05-04 22:21 | 45.29792 | 8.84375 | 6330 ft | 260 kts | 297° |
| 2026-05-04 22:21 | 45.30911 | 8.82421 | 5778 ft | 255 kts | 328° |
| 2026-05-04 22:22 | 45.32517 | 8.81472 | 5213 ft | 251 kts | 348° |
| 2026-05-04 22:22 | 45.34199 | 8.80922 | 4603 ft | 250 kts | 347° |
| 2026-05-04 22:22 | 45.35899 | 8.80385 | 3974 ft | 250 kts | 348° |
| 2026-05-04 22:22 | 45.37583 | 8.79941 | 3513 ft | 240 kts | 352° |
| 2026-05-04 22:23 | 45.39110 | 8.79624 | 3702 ft | 205 kts | 351° |
| 2026-05-04 22:23 | 45.40472 | 8.79337 | 3712 ft | 192 kts | 351° |
| 2026-05-04 22:23 | 45.41801 | 8.79064 | 3744 ft | 197 kts | 352° |
| 2026-05-04 22:23 | 45.43178 | 8.78786 | 3731 ft | 198 kts | 351° |
| 2026-05-04 22:24 | 45.44548 | 8.78434 | 3625 ft | 202 kts | 349° |
| 2026-05-04 22:24 | 45.45931 | 8.78050 | 3230 ft | 205 kts | 349° |
| 2026-05-04 22:24 | 45.47314 | 8.77673 | 2962 ft | 195 kts | 349° |
| 2026-05-04 22:24 | 45.48560 | 8.77331 | 2971 ft | 174 kts | 350° |
| 2026-05-04 22:25 | 45.49757 | 8.77005 | 3048 ft | 175 kts | 350° |
| 2026-05-04 22:25 | 45.50964 | 8.76666 | 3079 ft | 173 kts | 350° |
| 2026-05-04 22:25 | 45.52074 | 8.76367 | 3029 ft | 158 kts | 351° |
| 2026-05-04 22:25 | 45.53114 | 8.76134 | 2792 ft | 138 kts | 353° |
| 2026-05-04 22:26 | 45.54036 | 8.75974 | 2353 ft | 138 kts | 350° |
| 2026-05-04 22:26 | 45.54955 | 8.75734 | 1984 ft | 131 kts | 347° |
| 2026-05-04 22:26 | 45.55842 | 8.75450 | 1692 ft | 132 kts | 345° |
| 2026-05-04 22:26 | 45.56749 | 8.75122 | 1590 ft | 133 kts | 345° |
| 2026-05-04 22:27 | 45.57641 | 8.74847 | 1450 ft | 134 kts | 347° |
| 2026-05-04 22:27 | 45.58566 | 8.74581 | 1347 ft | 136 kts | 347° |
| 2026-05-04 22:27 | 45.59515 | 8.74333 | 1157 ft | 137 kts | 348° |
| 2026-05-04 22:27 | 45.60445 | 8.74059 | 974 ft | 139 kts | 348° |
| 2026-05-04 22:28 | 45.61398 | 8.73798 | 794 ft | 139 kts | 348° |
| 2026-05-04 22:28 | 45.62330 | 8.73545 | 718 ft | 131 kts | 347° |
| 2026-05-04 22:28 | 45.63019 | 8.73351 | 732 ft | 46 kts | 348° |
| 2026-05-04 22:28 | 45.63343 | 8.73256 | 739 ft | 45 kts | 349° |
| 2026-05-04 22:29 | 45.63593 | 8.73178 | 744 ft | 24 kts | 338° |
| 2026-05-04 22:29 | 45.63718 | 8.73076 | 747 ft | 17 kts | 319° |
| 2026-05-04 22:29 | 45.63792 | 8.72968 | 749 ft | 9 kts | 310° |
| 2026-05-04 22:29 | 45.63821 | 8.72911 | 750 ft | 5 kts | 304° |
| 2026-05-04 22:30 | 45.63839 | 8.72873 | 751 ft | 3 kts | 304° |
| 2026-05-04 22:30 | 45.63853 | 8.72842 | 751 ft | 3 kts | 304° |
| 2026-05-04 22:30 | 45.63865 | 8.72817 | 752 ft | 2 kts | 304° |
| 2026-05-04 22:30 | 45.63869 | 8.72809 | 752 ft | 0 kts | 304° |
| 2026-05-04 22:35 | 45.63873 | 8.72801 | 752 ft | 1 kts | 304° |
| 2026-05-04 22:35 | 45.63882 | 8.72781 | 752 ft | 3 kts | 304° |
| 2026-05-04 22:35 | 45.63897 | 8.72749 | 753 ft | 4 kts | 304° |
| 2026-05-04 22:36 | 45.63915 | 8.72712 | 753 ft | 4 kts | 304° |
| 2026-05-04 22:36 | 45.63931 | 8.72678 | 754 ft | 3 kts | 300° |
| 2026-05-04 22:36 | 45.63935 | 8.72652 | 754 ft | 2 kts | 273° |
| 2026-05-04 22:36 | 45.63937 | 8.72631 | 754 ft | 2 kts | 278° |
| 2026-05-04 22:37 | 45.63940 | 8.72597 | 754 ft | 3 kts | 280° |
| 2026-05-04 22:37 | 45.63945 | 8.72563 | 755 ft | 5 kts | 281° |
| 2026-05-04 22:37 | 45.63950 | 8.72505 | 755 ft | 5 kts | 267° |
| 2026-05-04 22:37 | 45.63942 | 8.72429 | 756 ft | 10 kts | 260° |
| 2026-05-04 22:38 | 45.63927 | 8.72307 | 756 ft | 14 kts | 260° |
| 2026-05-04 22:38 | 45.63915 | 8.72174 | 757 ft | 12 kts | 266° |
| 2026-05-04 22:38 | 45.63911 | 8.72069 | 758 ft | 8 kts | 268° |
| 2026-05-04 22:38 | 45.63909 | 8.71999 | 758 ft | 6 kts | 268° |
| 2026-05-04 22:39 | 45.63905 | 8.71940 | 759 ft | 8 kts | 261° |
| 2026-05-04 22:39 | 45.63869 | 8.71849 | 759 ft | 13 kts | 214° |
| 2026-05-04 22:39 | 45.63757 | 8.71836 | 756 ft | 18 kts | 170° |
| 2026-05-04 22:39 | 45.63627 | 8.71872 | 753 ft | 20 kts | 169° |
| 2026-05-04 22:40 | 45.63482 | 8.71912 | 749 ft | 21 kts | 169° |
| 2026-05-04 22:40 | 45.63345 | 8.71949 | 746 ft | 19 kts | 169° |
| 2026-05-04 22:40 | 45.63217 | 8.71984 | 744 ft | 17 kts | 169° |
| 2026-05-04 22:40 | 45.63097 | 8.72015 | 741 ft | 17 kts | 170° |
| 2026-05-04 22:41 | 45.62987 | 8.72045 | 739 ft | 15 kts | 166° |
| 2026-05-04 22:41 | 45.62871 | 8.72081 | 737 ft | 20 kts | 169° |
| 2026-05-04 22:41 | 45.62709 | 8.72126 | 734 ft | 25 kts | 169° |
| 2026-05-04 22:41 | 45.62535 | 8.72175 | 731 ft | 24 kts | 168° |
| 2026-05-04 22:42 | 45.62369 | 8.72220 | 728 ft | 24 kts | 169° |
| 2026-05-04 22:42 | 45.62188 | 8.72271 | 724 ft | 26 kts | 169° |
| 2026-05-04 22:42 | 45.62009 | 8.72320 | 719 ft | 25 kts | 169° |
| 2026-05-04 22:42 | 45.61840 | 8.72368 | 716 ft | 23 kts | 169° |
| 2026-05-04 22:43 | 45.61680 | 8.72411 | 711 ft | 22 kts | 169° |
| 2026-05-04 22:43 | 45.61539 | 8.72450 | 708 ft | 14 kts | 169° |
| 2026-05-04 22:43 | 45.61450 | 8.72468 | 706 ft | 11 kts | 191° |
| 2026-05-04 22:43 | 45.61406 | 8.72396 | 706 ft | 8 kts | 251° |
| 2026-05-04 22:44 | 45.61393 | 8.72328 | 706 ft | 5 kts | 259° |
| 2026-05-04 22:44 | 45.61385 | 8.72275 | 706 ft | 5 kts | 259° |
| 2026-05-04 22:44 | 45.61365 | 8.72213 | 706 ft | 9 kts | 216° |
| 2026-05-04 22:44 | 45.61295 | 8.72206 | 705 ft | 10 kts | 168° |
| 2026-05-04 22:45 | 45.61211 | 8.72230 | 703 ft | 15 kts | 168° |
| 2026-05-04 22:45 | 45.61084 | 8.72141 | 701 ft | 9 kts | 176° |
| 2026-05-04 22:45 | 45.61023 | 8.72155 | 700 ft | 0 kts | 169° |
| 2026-05-04 22:46 | 45.61005 | 8.72148 | 699 ft | 4 kts | 229° |
| 2026-05-04 22:46 | 45.60992 | 8.72117 | 699 ft | 1 kts | 264° |
| 2026-05-04 22:46 | 45.60988 | 8.72062 | 699 ft | 5 kts | 260° |
| 2026-05-04 22:46 | 45.60985 | 8.72041 | 699 ft | 0 kts | 259° |